Terminal Aerodrome Forecast
Issued by NWS Missoula, MT

Home | Current Version | Previous Version | Text Only | Print | Product List | Glossary On
Versions: 1 2 3 4 5 6 7 8 9 10 11 12 13 14 15 16 17 18 19
000
FTUS45 KMSO 271720
TAFBTM
TAF
KBTM 271720Z 2718/2818 23010G25KT P6SM BKN100
     FM280000 23009KT P6SM BKN100
     FM281400 21012KT P6SM -SHSN BKN050 OVC080=

USA.gov is the U.S. government's official web portal to all federal, state and local government web resources and services.